createdAt,value
2019-06-10T00:00:57.774Z,0.00
2019-06-10T00:01:57.831Z,0.00
2019-06-10T00:02:57.761Z,0.00
2019-06-10T00:03:57.857Z,0.00
2019-06-10T00:04:57.732Z,0.00
2019-06-10T00:05:57.719Z,0.00
2019-06-10T00:06:57.806Z,0.00
2019-06-10T00:07:58.038Z,0.00
2019-06-10T00:08:58.108Z,0.00
2019-06-10T00:09:58.210Z,0.00
2019-06-10T00:10:58.208Z,0.00
2019-06-10T00:11:58.348Z,0.00
2019-06-10T00:12:57.639Z,0.00
2019-06-10T00:13:58.580Z,0.00
2019-06-10T00:14:58.669Z,0.00
2019-06-10T00:15:59.258Z,0.00
2019-06-10T00:16:58.710Z,0.00
2019-06-10T00:18:18.705Z,0.00
2019-06-10T00:19:00.499Z,0.00
2019-06-10T00:19:57.562Z,0.00
2019-06-10T00:20:57.567Z,0.00
2019-06-10T00:21:57.544Z,0.00
2019-06-10T00:22:57.558Z,0.00
2019-06-10T00:23:57.572Z,0.00
2019-06-10T00:24:57.573Z,0.00
2019-06-10T00:25:57.890Z,0.00
2019-06-10T00:26:57.801Z,0.00
2019-06-10T00:27:57.913Z,0.00
2019-06-10T00:28:57.941Z,0.00
2019-06-10T00:29:58.098Z,0.00
2019-06-10T00:30:58.200Z,0.00
2019-06-10T00:31:58.483Z,0.00
2019-06-10T00:32:58.599Z,0.00
2019-06-10T00:33:58.618Z,0.00
2019-06-10T00:34:58.829Z,0.00
2019-06-10T00:35:57.383Z,0.00
2019-06-10T00:36:57.431Z,0.00
2019-06-10T00:37:57.370Z,0.00
2019-06-10T00:38:57.350Z,0.00
2019-06-10T00:39:57.345Z,0.00
2019-06-10T00:40:57.327Z,0.00
2019-06-10T00:41:57.323Z,0.00
2019-06-10T00:42:57.373Z,0.00
2019-06-10T00:43:57.296Z,0.00
2019-06-10T00:44:57.285Z,0.00
2019-06-10T00:45:57.272Z,0.00
2019-06-10T00:46:57.261Z,0.00
2019-06-10T00:48:07.721Z,0.00
2019-06-10T00:48:58.302Z,0.00
2019-06-10T00:49:57.228Z,0.00
2019-06-10T00:50:57.216Z,0.00
2019-06-10T00:51:57.204Z,0.00
2019-06-10T00:52:57.197Z,0.00
2019-06-10T00:53:57.183Z,0.00
2019-06-10T00:54:57.239Z,0.00
2019-06-10T00:55:57.175Z,0.00
2019-06-10T00:56:57.151Z,0.00
2019-06-10T00:57:57.138Z,0.00
2019-06-10T00:58:57.129Z,0.00
2019-06-10T00:59:57.117Z,0.00
2019-06-10T01:00:57.175Z,0.00
2019-06-10T01:01:57.093Z,0.00
2019-06-10T01:02:57.085Z,0.00
2019-06-10T01:03:57.073Z,0.00
2019-06-10T01:04:57.059Z,0.00
2019-06-10T01:05:57.048Z,0.00
2019-06-10T01:06:57.104Z,0.00
2019-06-10T01:07:57.026Z,0.00
2019-06-10T01:08:57.026Z,0.00
2019-06-10T01:09:57.004Z,0.00
2019-06-10T01:10:56.994Z,0.00
2019-06-10T01:11:56.996Z,0.00
2019-06-10T01:12:57.039Z,0.00
2019-06-10T01:13:56.959Z,0.00
2019-06-10T01:14:56.948Z,0.00
2019-06-10T01:15:56.939Z,0.00
2019-06-10T01:16:56.928Z,0.00
2019-06-10T01:17:56.917Z,0.00
2019-06-10T01:18:57.116Z,0.00
2019-06-10T01:19:56.918Z,0.00
2019-06-10T01:20:56.882Z,0.00
2019-06-10T01:21:56.875Z,0.00
2019-06-10T01:22:56.861Z,0.00
2019-06-10T01:23:56.847Z,0.00
2019-06-10T01:24:57.049Z,0.00
2019-06-10T01:25:56.826Z,0.00
2019-06-10T01:26:56.814Z,0.00
2019-06-10T01:27:56.806Z,0.00
2019-06-10T01:28:56.798Z,0.00
2019-06-10T01:29:56.783Z,0.00
2019-06-10T01:30:56.835Z,0.00
2019-06-10T01:31:56.757Z,0.00
2019-06-10T01:32:56.748Z,0.00
2019-06-10T01:33:56.736Z,0.00
2019-06-10T01:34:56.725Z,0.00
2019-06-10T01:35:56.713Z,0.00
2019-06-10T01:36:56.767Z,0.00
2019-06-10T01:37:56.691Z,0.00
2019-06-10T01:38:56.680Z,0.00
2019-06-10T01:39:56.674Z,0.00
2019-06-10T01:40:56.657Z,0.00
2019-06-10T01:41:56.652Z,0.00
2019-06-10T01:42:56.702Z,0.00
2019-06-10T01:43:56.625Z,0.00
2019-06-10T01:44:56.612Z,0.00
2019-06-10T01:45:56.602Z,0.00
2019-06-10T01:46:56.593Z,0.00
2019-06-10T01:47:56.580Z,0.00
2019-06-10T01:48:56.780Z,0.00
2019-06-10T01:49:56.556Z,0.00
2019-06-10T01:50:56.547Z,0.00
2019-06-10T01:51:56.534Z,0.00
2019-06-10T01:52:56.523Z,0.00
2019-06-10T01:53:56.525Z,0.00
2019-06-10T01:54:56.574Z,0.00
2019-06-10T01:55:56.491Z,0.00
2019-06-10T01:56:56.478Z,0.00
2019-06-10T01:57:56.468Z,0.00
2019-06-10T01:58:56.458Z,0.00
2019-06-10T01:59:56.446Z,0.00
2019-06-10T02:00:56.503Z,0.00
2019-06-10T02:01:56.424Z,0.00
2019-06-10T02:02:56.415Z,0.00
2019-06-10T02:03:56.403Z,0.00
2019-06-10T02:04:56.390Z,0.00
2019-06-10T02:05:56.381Z,0.00
2019-06-10T02:06:56.588Z,0.00
2019-06-10T02:07:56.356Z,0.00
2019-06-10T02:08:56.350Z,0.00
2019-06-10T02:09:56.334Z,0.00
2019-06-10T02:10:56.329Z,0.00
2019-06-10T02:11:56.312Z,0.00
2019-06-10T02:12:56.370Z,0.00
2019-06-10T02:13:56.291Z,0.00
2019-06-10T02:14:56.280Z,0.00
2019-06-10T02:15:56.273Z,0.00
2019-06-10T02:16:56.255Z,0.00
2019-06-10T02:17:56.244Z,0.00
2019-06-10T02:19:00.556Z,0.00
2019-06-10T02:19:57.231Z,0.00
2019-06-10T02:20:56.211Z,0.00
2019-06-10T02:21:56.198Z,0.00
2019-06-10T02:22:56.190Z,0.00
2019-06-10T02:23:56.177Z,0.00
2019-06-10T02:24:56.233Z,0.00
2019-06-10T02:25:56.157Z,0.00
2019-06-10T02:26:56.146Z,0.00
2019-06-10T02:27:56.134Z,0.00
2019-06-10T02:28:56.121Z,0.00
2019-06-10T02:29:56.110Z,0.00
2019-06-10T02:30:56.324Z,0.00
2019-06-10T02:31:56.097Z,0.00
2019-06-10T02:32:56.078Z,0.00
2019-06-10T02:33:56.070Z,0.00
2019-06-10T02:35:08.087Z,0.00
2019-06-10T02:35:57.115Z,0.00
2019-06-10T02:36:56.045Z,0.00
2019-06-10T02:37:56.020Z,0.00
2019-06-10T02:38:56.009Z,0.00
2019-06-10T02:39:56.004Z,0.00
2019-06-10T02:40:55.987Z,0.00
2019-06-10T02:41:56.052Z,0.00
2019-06-10T02:42:55.970Z,0.00
2019-06-10T02:43:55.955Z,0.00
2019-06-10T02:44:55.964Z,0.00
2019-06-10T02:45:56.075Z,0.00
2019-06-10T02:46:55.925Z,0.00
2019-06-10T02:47:55.973Z,0.00
2019-06-10T02:48:55.898Z,0.00
2019-06-10T02:50:02.438Z,0.00
2019-06-10T02:50:56.875Z,0.00
2019-06-10T02:51:55.864Z,0.00
2019-06-10T02:52:55.854Z,0.00
2019-06-10T02:53:55.905Z,0.00
2019-06-10T02:54:55.838Z,0.00
2019-06-10T02:55:55.820Z,0.00
2019-06-10T02:56:55.815Z,0.00
2019-06-10T02:57:55.797Z,0.00
2019-06-10T02:58:55.789Z,5.62
2019-06-10T02:59:55.843Z,5.62
2019-06-10T03:00:55.764Z,5.62
2019-06-10T03:01:55.752Z,5.62
2019-06-10T03:02:55.741Z,5.62
2019-06-10T03:03:55.728Z,5.62
2019-06-10T03:04:55.736Z,5.62
2019-06-10T03:05:55.817Z,5.62
2019-06-10T03:06:55.695Z,5.62
2019-06-10T03:07:55.701Z,5.62
2019-06-10T03:08:55.673Z,5.62
2019-06-10T03:09:55.662Z,5.62
2019-06-10T03:10:55.651Z,5.62
2019-06-10T03:11:55.862Z,5.62
2019-06-10T03:12:55.639Z,5.62
2019-06-10T03:13:55.614Z,5.62
2019-06-10T03:14:55.607Z,5.62
2019-06-10T03:15:55.592Z,5.62
2019-06-10T03:16:55.580Z,5.62
2019-06-10T03:17:55.638Z,5.62
2019-06-10T03:18:55.558Z,5.62
2019-06-10T03:19:55.551Z,5.62
2019-06-10T03:20:55.534Z,5.62
2019-06-10T03:21:55.532Z,5.62
2019-06-10T03:22:55.513Z,5.62
2019-06-10T03:23:55.554Z,11.25
2019-06-10T03:24:55.490Z,11.25
2019-06-10T03:25:55.479Z,11.25
2019-06-10T03:26:55.498Z,11.25
2019-06-10T03:27:55.460Z,11.25
2019-06-10T03:28:55.448Z,11.25
2019-06-10T03:29:55.494Z,11.25
2019-06-10T03:30:58.947Z,11.25
2019-06-10T03:31:55.768Z,16.88
2019-06-10T03:32:55.769Z,16.88
2019-06-10T03:33:55.388Z,16.88
2019-06-10T03:34:55.386Z,16.88
2019-06-10T03:35:55.426Z,22.50
2019-06-10T03:36:55.359Z,28.12
2019-06-10T03:37:55.344Z,33.75
2019-06-10T03:38:55.332Z,39.38
2019-06-10T03:39:55.319Z,45.00
2019-06-10T03:40:55.310Z,45.00
2019-06-10T03:41:55.352Z,45.00
2019-06-10T03:42:55.286Z,45.00
2019-06-10T03:43:55.276Z,50.62
2019-06-10T03:44:55.262Z,50.62
2019-06-10T03:45:55.252Z,50.62
2019-06-10T03:46:55.246Z,45.00
2019-06-10T03:47:55.294Z,39.38
2019-06-10T03:48:55.220Z,33.75
2019-06-10T03:49:56.247Z,33.75
2019-06-10T03:50:55.199Z,33.75
2019-06-10T03:51:55.185Z,33.75
2019-06-10T03:52:55.173Z,33.75
2019-06-10T03:53:55.223Z,33.75
2019-06-10T03:54:55.152Z,39.38
2019-06-10T03:55:55.141Z,39.38
2019-06-10T03:56:55.130Z,50.62
2019-06-10T03:57:55.118Z,56.25
2019-06-10T03:58:55.106Z,73.12
2019-06-10T03:59:55.148Z,90.00
2019-06-10T04:00:55.090Z,106.88
2019-06-10T04:01:55.073Z,129.38
2019-06-10T04:02:55.063Z,146.25
2019-06-10T04:03:55.049Z,157.50
2019-06-10T04:04:55.038Z,168.75
2019-06-10T04:05:55.087Z,168.75
2019-06-10T04:06:55.018Z,157.50
2019-06-10T04:07:55.005Z,151.88
2019-06-10T04:08:54.995Z,140.62
2019-06-10T04:09:54.983Z,146.25
2019-06-10T04:10:54.973Z,157.50
2019-06-10T04:11:55.026Z,157.50
2019-06-10T04:12:54.948Z,151.88
2019-06-10T04:13:54.937Z,146.25
2019-06-10T04:14:54.929Z,140.62
2019-06-10T04:15:54.917Z,123.75
2019-06-10T04:16:54.906Z,106.88
2019-06-10T04:17:54.954Z,90.00
2019-06-10T04:18:54.881Z,73.12
2019-06-10T04:20:07.992Z,67.50
2019-06-10T04:20:55.860Z,73.12
2019-06-10T04:21:54.852Z,78.75
2019-06-10T04:22:54.837Z,84.38
2019-06-10T04:23:54.891Z,90.00
2019-06-10T04:24:54.814Z,95.62
2019-06-10T04:25:54.803Z,106.88
2019-06-10T04:26:54.795Z,112.50
2019-06-10T04:27:54.783Z,106.88
2019-06-10T04:28:54.769Z,101.25
2019-06-10T04:29:54.822Z,101.25
2019-06-10T04:30:54.748Z,84.38
2019-06-10T04:31:54.737Z,73.12
2019-06-10T04:32:54.726Z,67.50
2019-06-10T04:33:54.715Z,61.88
2019-06-10T04:34:54.703Z,61.88
2019-06-10T04:35:54.780Z,61.88
2019-06-10T04:36:54.683Z,56.25
2019-06-10T04:37:54.669Z,56.25
2019-06-10T04:38:54.658Z,50.62
2019-06-10T04:39:57.449Z,50.62
2019-06-10T04:40:54.635Z,56.25
2019-06-10T04:41:54.685Z,56.25
2019-06-10T04:42:54.614Z,61.88
2019-06-10T04:43:54.602Z,61.88
2019-06-10T04:44:54.591Z,61.88
2019-06-10T04:45:54.581Z,67.50
2019-06-10T04:46:54.570Z,56.25
2019-06-10T04:47:54.620Z,56.25
2019-06-10T04:48:54.546Z,56.25
2019-06-10T04:49:54.535Z,56.25
2019-06-10T04:50:54.523Z,61.88
2019-06-10T04:51:54.512Z,61.88
2019-06-10T04:52:54.508Z,67.50
2019-06-10T04:53:54.553Z,73.12
2019-06-10T04:54:54.480Z,78.75
2019-06-10T04:55:54.468Z,90.00
2019-06-10T04:56:54.457Z,90.00
2019-06-10T04:57:54.445Z,90.00
2019-06-10T04:58:54.440Z,90.00
2019-06-10T04:59:54.483Z,101.25
2019-06-10T05:00:54.428Z,101.25
2019-06-10T05:01:54.405Z,95.62
2019-06-10T05:02:54.391Z,95.62
2019-06-10T05:03:54.379Z,95.62
2019-06-10T05:04:54.371Z,95.62
2019-06-10T05:05:54.417Z,95.62
2019-06-10T05:06:54.348Z,95.62
2019-06-10T05:07:54.379Z,95.62
2019-06-10T05:08:54.342Z,101.25
2019-06-10T05:09:54.313Z,106.88
2019-06-10T05:10:54.303Z,118.12
2019-06-10T05:11:54.352Z,118.12
2019-06-10T05:12:54.281Z,129.38
2019-06-10T05:13:54.270Z,146.25
2019-06-10T05:14:54.256Z,157.50
2019-06-10T05:15:54.303Z,168.75
2019-06-10T05:16:54.506Z,168.75
2019-06-10T05:17:54.285Z,163.12
2019-06-10T05:18:55.003Z,163.12
2019-06-10T05:19:54.200Z,157.50
2019-06-10T05:20:58.370Z,151.88
2019-06-10T05:21:54.183Z,163.12
2019-06-10T05:22:54.167Z,157.50
2019-06-10T05:23:54.224Z,146.25
2019-06-10T05:24:54.145Z,140.62
2019-06-10T05:25:56.104Z,146.25
2019-06-10T05:26:54.124Z,140.62
2019-06-10T05:27:54.116Z,140.62
2019-06-10T05:28:54.101Z,135.00
2019-06-10T05:29:54.150Z,140.62
2019-06-10T05:30:54.082Z,146.25
2019-06-10T05:31:54.073Z,151.88
2019-06-10T05:32:54.059Z,140.62
2019-06-10T05:33:54.043Z,135.00
2019-06-10T05:34:54.033Z,123.75
2019-06-10T05:35:54.085Z,112.50
2019-06-10T05:36:54.010Z,118.12
2019-06-10T05:37:54.035Z,135.00
2019-06-10T05:38:53.988Z,163.12
2019-06-10T05:39:53.985Z,185.62
2019-06-10T05:40:53.965Z,191.25
2019-06-10T05:41:54.015Z,180.00
2019-06-10T05:42:53.943Z,174.38
2019-06-10T05:43:53.934Z,185.62
2019-06-10T05:44:53.926Z,219.38
2019-06-10T05:45:53.910Z,264.38
2019-06-10T05:46:53.899Z,292.50
2019-06-10T05:47:53.949Z,309.38
2019-06-10T05:48:53.876Z,354.38
2019-06-10T05:49:53.885Z,410.62
2019-06-10T05:51:02.196Z,483.75
2019-06-10T05:51:54.843Z,556.88
2019-06-10T05:52:53.835Z,579.38
2019-06-10T05:53:53.884Z,613.12
2019-06-10T05:54:53.809Z,652.50
2019-06-10T05:55:53.805Z,714.38
2019-06-10T05:56:53.791Z,821.25
2019-06-10T05:57:53.775Z,900.00
2019-06-10T05:58:53.775Z,939.38
2019-06-10T05:59:53.827Z,945.00
2019-06-10T06:00:53.741Z,894.38
2019-06-10T06:01:54.041Z,916.88
2019-06-10T06:02:53.719Z,1558.12
2019-06-10T06:03:53.737Z,1389.38
2019-06-10T06:04:53.698Z,1153.12
2019-06-10T06:05:53.891Z,978.75
2019-06-10T06:06:53.674Z,961.88
2019-06-10T06:08:04.886Z,1338.75
2019-06-10T06:08:54.653Z,866.25
2019-06-10T06:09:53.644Z,950.62
2019-06-10T06:10:53.630Z,1023.75
2019-06-10T06:11:53.682Z,855.00
2019-06-10T06:12:53.607Z,1113.75
2019-06-10T06:13:53.598Z,950.62
2019-06-10T06:14:53.584Z,832.50
2019-06-10T06:15:53.572Z,832.50
2019-06-10T06:16:53.576Z,905.62
2019-06-10T06:18:06.243Z,860.62
2019-06-10T06:18:54.537Z,838.12
2019-06-10T06:19:53.588Z,877.50
2019-06-10T06:20:53.518Z,1395.00
2019-06-10T06:21:53.504Z,1158.75
2019-06-10T06:22:53.525Z,1186.88
2019-06-10T06:23:53.543Z,1063.12
2019-06-10T06:24:53.472Z,1085.62
2019-06-10T06:25:53.461Z,1102.50
2019-06-10T06:26:53.533Z,1153.12
2019-06-10T06:27:53.440Z,1125.00
2019-06-10T06:28:53.679Z,1102.50
2019-06-10T06:29:53.476Z,1338.75
2019-06-10T06:30:53.407Z,1783.12
2019-06-10T06:31:53.394Z,1878.75
2019-06-10T06:32:53.382Z,1749.38
2019-06-10T06:33:53.373Z,1355.62
2019-06-10T06:34:53.363Z,1321.88
2019-06-10T06:35:53.409Z,1220.62
2019-06-10T06:36:53.337Z,1113.75
2019-06-10T06:37:54.090Z,1130.62
2019-06-10T06:38:53.385Z,1057.50
2019-06-10T06:39:53.311Z,1023.75
2019-06-10T06:40:53.804Z,1001.25
2019-06-10T06:41:53.343Z,1012.50
2019-06-10T06:42:53.274Z,1040.62
2019-06-10T06:43:53.342Z,1051.88
2019-06-10T06:44:53.249Z,1248.75
2019-06-10T06:45:53.283Z,1591.88
2019-06-10T06:46:53.404Z,1119.38
2019-06-10T06:47:53.278Z,1119.38
2019-06-10T06:48:53.493Z,1181.25
2019-06-10T06:49:53.255Z,1321.88
2019-06-10T06:51:04.517Z,1355.62
2019-06-10T06:51:58.445Z,1344.38
2019-06-10T06:53:19.801Z,1400.62
2019-06-10T06:53:56.226Z,1355.62
2019-06-10T06:54:53.192Z,1248.75
2019-06-10T06:55:55.847Z,1226.25
2019-06-10T06:56:53.552Z,1226.25
2019-06-10T06:57:53.107Z,1248.75
2019-06-10T06:58:53.155Z,1265.62
2019-06-10T06:59:53.082Z,1316.25
2019-06-10T07:01:05.198Z,1344.38
2019-06-10T07:01:54.060Z,1310.62
2019-06-10T07:02:53.060Z,1260.00
2019-06-10T07:03:53.697Z,1243.12
2019-06-10T07:04:53.235Z,1265.62
2019-06-10T07:05:53.077Z,1288.12
2019-06-10T07:06:55.537Z,1305.00
2019-06-10T07:07:52.997Z,1310.62
2019-06-10T07:09:04.228Z,1299.38
2019-06-10T07:09:54.032Z,1265.62
2019-06-10T07:10:52.958Z,1260.00
2019-06-10T07:11:53.034Z,1254.38
2019-06-10T07:12:52.936Z,1288.12
2019-06-10T07:13:53.485Z,1276.88
2019-06-10T07:14:52.916Z,1260.00
2019-06-10T07:15:53.557Z,1276.88
2019-06-10T07:16:53.058Z,1260.00
2019-06-10T07:17:52.883Z,1271.25
2019-06-10T07:18:53.915Z,1248.75
2019-06-10T07:19:53.080Z,1198.12
2019-06-10T07:20:54.076Z,1271.25
2019-06-10T07:22:08.395Z,1305.00
2019-06-10T07:22:53.826Z,1192.50
2019-06-10T07:23:53.080Z,1260.00
2019-06-10T07:24:53.077Z,1276.88
2019-06-10T07:25:53.258Z,1198.12
2019-06-10T07:26:54.957Z,1153.12
2019-06-10T07:27:52.858Z,1248.75
2019-06-10T07:28:53.773Z,1299.38
2019-06-10T07:29:53.129Z,1226.25
2019-06-10T07:30:55.270Z,1186.88
2019-06-10T07:31:53.556Z,1260.00
2019-06-10T07:32:52.925Z,1310.62
2019-06-10T07:33:52.835Z,1434.38
2019-06-10T07:34:52.728Z,1490.62
2019-06-10T07:35:56.434Z,1428.75
2019-06-10T07:36:52.676Z,1473.75
2019-06-10T07:37:52.667Z,1546.88
2019-06-10T07:38:53.960Z,1569.38
2019-06-10T07:39:52.847Z,1653.75
2019-06-10T07:40:53.122Z,1631.25
2019-06-10T07:41:53.036Z,1530.00
2019-06-10T07:42:53.069Z,1485.00
2019-06-10T07:43:53.076Z,1518.75
2019-06-10T07:44:53.195Z,1563.75
2019-06-10T07:45:53.345Z,1670.62
2019-06-10T07:46:53.199Z,1732.50
2019-06-10T07:47:52.552Z,1766.25
2019-06-10T07:48:56.286Z,1811.25
2019-06-10T07:49:52.540Z,1800.00
2019-06-10T07:50:53.200Z,1828.12
2019-06-10T07:51:52.569Z,1816.88
2019-06-10T07:52:52.910Z,1710.00
2019-06-10T07:53:52.887Z,1586.25
2019-06-10T07:54:53.010Z,1631.25
2019-06-10T07:55:53.585Z,1698.75
2019-06-10T07:56:53.737Z,1648.12
2019-06-10T07:57:53.121Z,1597.50
2019-06-10T07:58:52.882Z,1586.25
2019-06-10T07:59:52.506Z,1569.38
2019-06-10T08:00:53.482Z,1530.00
2019-06-10T08:01:55.219Z,1518.75
2019-06-10T08:02:53.028Z,1614.38
2019-06-10T08:03:52.884Z,1631.25
2019-06-10T08:04:54.173Z,1625.62
2019-06-10T08:05:52.655Z,1625.62
2019-06-10T08:06:52.994Z,1642.50
2019-06-10T08:07:54.799Z,1704.38
2019-06-10T08:08:53.235Z,1732.50
2019-06-10T08:09:53.246Z,1681.88
2019-06-10T08:10:52.942Z,1681.88
2019-06-10T08:11:53.185Z,1732.50
2019-06-10T08:12:52.550Z,1693.12
2019-06-10T08:13:53.803Z,1738.12
2019-06-10T08:14:53.289Z,1693.12
2019-06-10T08:15:53.283Z,1653.75
2019-06-10T08:16:53.219Z,1642.50
2019-06-10T08:17:53.086Z,1631.25
2019-06-10T08:19:20.105Z,1653.75
2019-06-10T08:19:54.356Z,1586.25
2019-06-10T08:20:52.835Z,1603.12
2019-06-10T08:21:53.622Z,1659.38
2019-06-10T08:22:57.527Z,1670.62
2019-06-10T08:23:54.222Z,1631.25
2019-06-10T08:24:52.457Z,1687.50
2019-06-10T08:25:54.610Z,1704.38
2019-06-10T08:26:53.206Z,1704.38
2019-06-10T08:27:53.049Z,1648.12
2019-06-10T08:28:53.040Z,1676.25
2019-06-10T08:30:13.191Z,1676.25
2019-06-10T08:30:53.481Z,1766.25
2019-06-10T08:31:53.232Z,1760.62
2019-06-10T08:32:56.028Z,1794.38
2019-06-10T08:33:53.322Z,1693.12
2019-06-10T08:34:53.008Z,1771.88
2019-06-10T08:35:59.878Z,1856.25
2019-06-10T08:36:54.292Z,1833.75
2019-06-10T08:37:52.977Z,1777.50
2019-06-10T08:38:52.785Z,1659.38
2019-06-10T08:39:53.063Z,1620.00
2019-06-10T08:40:52.440Z,1710.00
2019-06-10T08:41:52.833Z,1800.00
2019-06-10T08:42:53.701Z,1794.38
2019-06-10T08:43:52.954Z,1777.50
2019-06-10T08:44:53.348Z,1614.38
2019-06-10T08:45:52.984Z,1659.38
2019-06-10T08:46:52.452Z,1755.00
2019-06-10T08:47:54.048Z,1940.62
2019-06-10T08:48:52.543Z,1985.62
2019-06-10T08:49:53.080Z,1890.00
2019-06-10T08:50:53.030Z,1867.50
2019-06-10T08:51:53.428Z,1833.75
2019-06-10T08:53:07.304Z,1873.12
2019-06-10T08:53:53.351Z,1901.25
2019-06-10T08:54:54.280Z,1940.62
2019-06-10T08:55:53.483Z,1918.12
2019-06-10T08:56:54.115Z,2205.00
2019-06-10T08:57:54.046Z,2255.62
2019-06-10T08:58:54.117Z,2086.88
2019-06-10T08:59:53.312Z,1940.62
2019-06-10T09:00:53.569Z,2036.25
2019-06-10T09:01:56.855Z,2193.75
2019-06-10T09:02:53.948Z,2193.75
2019-06-10T09:03:53.714Z,2025.00
2019-06-10T09:04:53.580Z,2086.88
2019-06-10T09:05:53.914Z,2120.62
2019-06-10T09:06:53.775Z,2148.75
2019-06-10T09:07:54.351Z,2120.62
2019-06-10T09:08:54.503Z,2120.62
2019-06-10T09:09:53.934Z,2165.62
2019-06-10T09:10:54.813Z,2143.12
2019-06-10T09:11:54.563Z,2109.38
2019-06-10T09:12:54.512Z,2131.88
2019-06-10T09:13:53.223Z,2025.00
2019-06-10T09:14:53.176Z,1923.75
2019-06-10T09:16:09.722Z,1861.88
2019-06-10T09:16:54.268Z,1828.12
2019-06-10T09:17:55.273Z,1929.38
2019-06-10T09:18:54.987Z,1940.62
2019-06-10T09:19:53.941Z,1906.88
2019-06-10T09:20:55.742Z,1867.50
2019-06-10T09:21:55.340Z,1856.25
2019-06-10T09:23:13.221Z,1901.25
2019-06-10T09:23:59.422Z,2058.75
2019-06-10T09:24:56.190Z,2379.38
2019-06-10T09:25:54.487Z,2655.00
2019-06-10T09:26:54.969Z,2801.25
2019-06-10T09:27:54.566Z,2160.00
2019-06-10T09:28:55.812Z,2598.75
2019-06-10T09:29:55.379Z,2621.25
2019-06-10T09:30:57.934Z,2418.75
2019-06-10T09:31:55.551Z,2632.50
2019-06-10T09:32:56.123Z,2722.50
2019-06-10T09:33:56.601Z,3116.25
2019-06-10T09:34:54.763Z,3493.12
2019-06-10T09:35:54.967Z,3645.00
2019-06-10T09:36:56.433Z,3498.75
2019-06-10T09:37:55.643Z,2767.50
2019-06-10T09:38:54.938Z,2958.75
2019-06-10T09:39:58.940Z,3093.75
2019-06-10T09:41:00.850Z,3566.25
2019-06-10T09:42:01.079Z,3639.38
2019-06-10T09:42:55.031Z,3318.75
2019-06-10T09:43:56.554Z,3054.38
2019-06-10T09:44:55.395Z,2874.38
2019-06-10T09:45:55.299Z,3465.00
2019-06-10T09:46:56.018Z,3645.00
2019-06-10T09:47:58.723Z,3121.88
2019-06-10T09:48:55.722Z,3740.62
2019-06-10T09:49:55.350Z,3976.88
2019-06-10T09:50:57.548Z,3785.62
2019-06-10T09:51:56.425Z,4246.88
2019-06-10T09:52:56.863Z,3650.62
2019-06-10T09:54:01.373Z,3273.75
2019-06-10T09:54:56.554Z,3470.62
2019-06-10T09:55:55.285Z,3408.75
2019-06-10T09:56:54.587Z,2677.50
2019-06-10T09:57:58.175Z,2947.50
2019-06-10T09:58:55.081Z,2795.62
2019-06-10T09:59:55.998Z,3003.75
2019-06-10T10:00:57.249Z,2896.88
2019-06-10T10:01:58.086Z,2497.50
2019-06-10T10:02:56.065Z,2227.50
2019-06-10T10:03:58.291Z,2103.75
2019-06-10T10:04:57.723Z,2452.50
2019-06-10T10:05:59.283Z,3549.38
2019-06-10T10:06:56.816Z,2880.00
2019-06-10T10:07:57.036Z,2452.50
2019-06-10T10:08:56.256Z,1946.25
2019-06-10T10:09:56.901Z,1985.62
2019-06-10T10:10:58.355Z,2199.38
2019-06-10T10:11:55.176Z,2193.75
2019-06-10T10:12:52.216Z,2002.50
2019-06-10T10:13:51.457Z,2103.75
2019-06-10T10:14:52.441Z,2503.12
2019-06-10T10:15:53.838Z,2739.38
2019-06-10T10:16:58.674Z,2649.38
2019-06-10T10:17:56.218Z,3414.38
2019-06-10T10:18:59.336Z,4246.88
2019-06-10T10:19:56.800Z,3071.25
2019-06-10T10:20:58.596Z,2666.25
2019-06-10T10:21:56.091Z,2756.25
2019-06-10T10:22:55.177Z,3127.50
2019-06-10T10:24:05.847Z,3566.25
2019-06-10T10:24:55.146Z,3667.50
2019-06-10T10:25:54.827Z,3645.00
2019-06-10T10:26:57.155Z,3594.38
2019-06-10T10:27:57.225Z,3690.00
2019-06-10T10:28:56.830Z,3127.50
2019-06-10T10:29:57.070Z,3375.00
2019-06-10T10:30:57.123Z,3240.00
2019-06-10T10:31:52.786Z,2205.00
2019-06-10T10:32:52.351Z,2064.38
2019-06-10T10:33:50.784Z,2638.12
2019-06-10T10:34:52.521Z,3549.38
2019-06-10T10:35:52.666Z,4933.12
2019-06-10T10:36:54.406Z,3571.88
2019-06-10T10:37:54.299Z,2880.00
2019-06-10T10:38:50.847Z,2694.38
2019-06-10T10:39:53.784Z,2356.88
2019-06-10T10:40:58.082Z,2655.00
2019-06-10T10:41:55.026Z,2947.50
2019-06-10T10:43:00.675Z,3211.88
2019-06-10T10:43:56.532Z,2508.75
2019-06-10T10:44:57.482Z,2413.12
2019-06-10T10:45:57.473Z,3397.50
2019-06-10T10:46:53.750Z,3723.75
2019-06-10T10:47:52.593Z,4286.25
2019-06-10T10:48:55.186Z,3858.75
2019-06-10T10:49:55.525Z,3465.00
2019-06-10T10:50:55.483Z,3571.88
2019-06-10T10:51:51.139Z,3453.75
2019-06-10T10:52:52.358Z,3183.75
2019-06-10T10:54:15.414Z,2739.38
2019-06-10T10:54:53.951Z,2283.75
2019-06-10T10:55:51.864Z,2188.12
2019-06-10T10:56:55.159Z,2002.50
2019-06-10T10:57:54.340Z,1929.38
2019-06-10T10:58:55.632Z,1935.00
2019-06-10T10:59:53.955Z,2176.88
2019-06-10T11:00:54.441Z,2278.12
2019-06-10T11:01:52.138Z,2193.75
2019-06-10T11:02:51.428Z,2323.12
2019-06-10T11:03:52.511Z,2317.50
2019-06-10T11:04:55.185Z,2930.62
2019-06-10T11:05:57.567Z,3195.00
2019-06-10T11:06:54.310Z,3566.25
2019-06-10T11:07:54.782Z,4038.75
2019-06-10T11:08:51.653Z,4910.62
2019-06-10T11:09:53.508Z,4803.75
2019-06-10T11:10:55.451Z,4550.62
2019-06-10T11:11:53.318Z,3858.75
2019-06-10T11:12:51.661Z,5568.75
2019-06-10T11:13:54.826Z,4640.62
2019-06-10T11:14:54.411Z,5338.12
2019-06-10T11:15:53.525Z,5641.88
2019-06-10T11:16:56.587Z,5647.50
2019-06-10T11:17:55.083Z,4978.12
2019-06-10T11:18:54.041Z,4230.00
2019-06-10T11:19:53.707Z,4365.00
2019-06-10T11:20:51.503Z,4151.25
2019-06-10T11:21:51.497Z,5090.62
2019-06-10T11:22:51.399Z,4128.75
2019-06-10T11:23:50.286Z,3864.38
2019-06-10T11:24:51.305Z,3420.00
2019-06-10T11:25:53.294Z,3521.25
2019-06-10T11:26:56.066Z,2885.62
2019-06-10T11:27:53.059Z,2891.25
2019-06-10T11:28:52.829Z,2986.88
2019-06-10T11:29:50.937Z,2964.38
2019-06-10T11:30:52.690Z,3993.75
2019-06-10T11:31:53.662Z,5068.12
2019-06-10T11:32:53.528Z,3903.75
2019-06-10T11:33:53.933Z,4753.12
2019-06-10T11:34:56.418Z,5175.00
2019-06-10T11:35:53.675Z,6058.12
2019-06-10T11:36:51.139Z,6795.00
2019-06-10T11:37:51.716Z,6474.38
2019-06-10T11:38:51.177Z,4916.25
2019-06-10T11:39:50.268Z,5169.38
2019-06-10T11:40:52.398Z,6136.88
2019-06-10T11:41:52.833Z,6547.50
2019-06-10T11:42:50.654Z,6463.12
2019-06-10T11:43:51.180Z,5951.25
2019-06-10T11:44:51.337Z,3234.38
2019-06-10T11:45:55.138Z,6879.38
2019-06-10T11:46:53.982Z,6091.88
2019-06-10T11:47:53.917Z,5428.12
2019-06-10T11:48:53.668Z,4145.62
2019-06-10T11:49:53.245Z,5771.25
2019-06-10T11:50:52.084Z,4500.00
2019-06-10T11:51:52.640Z,4770.00
2019-06-10T11:52:53.033Z,4438.12
2019-06-10T11:53:54.313Z,3341.25
2019-06-10T11:55:04.163Z,3054.38
2019-06-10T11:55:51.758Z,2103.75
2019-06-10T11:56:49.944Z,1996.88
2019-06-10T11:57:51.010Z,2064.38
2019-06-10T11:58:50.042Z,2446.88
2019-06-10T11:59:50.805Z,2323.12
2019-06-10T12:00:51.049Z,4921.88
2019-06-10T12:01:51.441Z,5411.25
2019-06-10T12:02:50.919Z,5928.75
2019-06-10T12:03:51.160Z,6536.25
2019-06-10T12:04:51.109Z,5956.88
2019-06-10T12:05:53.411Z,4826.25
2019-06-10T12:06:51.321Z,4882.50
2019-06-10T12:07:51.815Z,5855.62
2019-06-10T12:08:54.078Z,5945.62
2019-06-10T12:09:53.281Z,5771.25
2019-06-10T12:10:51.926Z,6013.12
2019-06-10T12:11:54.177Z,6007.50
2019-06-10T12:12:53.542Z,5529.38
2019-06-10T12:13:53.725Z,5461.88
2019-06-10T12:14:54.618Z,6103.12
2019-06-10T12:16:32.537Z,6575.62
2019-06-10T12:17:17.445Z,6198.75
2019-06-10T12:17:57.974Z,5765.62
2019-06-10T12:18:51.666Z,5805.00
2019-06-10T12:19:49.862Z,6181.88
2019-06-10T12:20:49.746Z,6204.38
2019-06-10T12:21:49.827Z,5748.75
2019-06-10T12:22:49.691Z,5450.62
2019-06-10T12:23:49.786Z,5501.25
2019-06-10T12:24:50.311Z,5698.12
2019-06-10T12:25:49.773Z,5602.50
2019-06-10T12:26:49.901Z,5326.88
2019-06-10T12:27:51.221Z,5602.50
2019-06-10T12:28:54.230Z,5580.00
2019-06-10T12:29:53.026Z,5484.38
2019-06-10T12:30:51.191Z,5771.25
2019-06-10T12:31:50.799Z,5625.00